createdAt,value
2023-02-23T00:02:08.548Z,-10.50
2023-02-23T00:04:36.550Z,-11.20
2023-02-23T00:07:06.618Z,-11.20
2023-02-23T00:09:37.315Z,-11.10
2023-02-23T00:12:09.591Z,-11.00
2023-02-23T00:14:40.675Z,-11.30
2023-02-23T00:17:15.054Z,-11.40
2023-02-23T00:19:46.037Z,-11.30
2023-02-23T00:22:13.636Z,-11.40
2023-02-23T00:24:44.547Z,-11.40
2023-02-23T00:27:18.047Z,-11.40
2023-02-23T00:29:49.825Z,-11.30
2023-02-23T00:32:21.096Z,-11.40
2023-02-23T00:34:52.077Z,-11.40
2023-02-23T00:37:20.304Z,-11.50
2023-02-23T00:39:48.056Z,-11.50
2023-02-23T00:42:16.153Z,-11.50
2023-02-23T00:44:43.737Z,-11.50
2023-02-23T00:47:11.445Z,-11.40
2023-02-23T00:49:39.132Z,-11.40
2023-02-23T00:52:06.667Z,-11.30
2023-02-23T00:54:34.219Z,-11.20
2023-02-23T00:57:01.959Z,-11.30
2023-02-23T00:59:29.931Z,-11.30
2023-02-23T01:01:58.432Z,-11.50
2023-02-23T01:04:26.038Z,-11.50
2023-02-23T01:06:53.598Z,-11.60
2023-02-23T01:09:28.388Z,-11.60
2023-02-23T01:11:57.329Z,-11.60
2023-02-23T01:14:25.286Z,-11.60
2023-02-23T01:16:52.973Z,-11.60
2023-02-23T01:19:20.679Z,-11.70
2023-02-23T01:21:49.430Z,-11.70
2023-02-23T01:24:19.660Z,-11.70
2023-02-23T01:26:47.642Z,-11.60
2023-02-23T01:29:18.276Z,-11.70
2023-02-23T01:31:49.068Z,-11.70
2023-02-23T01:34:16.799Z,-11.80
2023-02-23T01:36:46.297Z,-11.70
2023-02-23T01:39:16.972Z,-11.70
2023-02-23T01:41:45.359Z,-11.60
2023-02-23T01:44:15.960Z,-11.80
2023-02-23T01:46:46.497Z,-11.80
2023-02-23T01:49:20.402Z,-11.80
2023-02-23T01:51:55.981Z,-11.90
2023-02-23T01:54:29.245Z,-11.90
2023-02-23T01:57:01.762Z,-11.90
2023-02-23T01:59:40.971Z,-11.80
2023-02-23T02:02:08.639Z,-11.80
2023-02-23T02:04:44.929Z,-11.60
2023-02-23T02:07:20.678Z,-11.40
2023-02-23T02:10:07.967Z,-11.80
2023-02-23T02:12:35.860Z,-11.80
2023-02-23T02:15:05.699Z,-11.80
2023-02-23T02:17:33.214Z,-12.00
2023-02-23T02:20:19.864Z,-12.00
2023-02-23T02:23:27.571Z,-12.00
2023-02-23T02:26:01.172Z,-12.10
2023-02-23T02:28:31.919Z,-12.10
2023-02-23T02:31:08.637Z,-12.10
2023-02-23T02:34:16.152Z,-12.00
2023-02-23T02:37:11.608Z,-12.00
2023-02-23T02:40:18.716Z,-12.20
2023-02-23T02:43:01.187Z,-12.00
2023-02-23T02:45:37.960Z,-12.10
2023-02-23T02:48:25.919Z,-12.20
2023-02-23T02:51:04.672Z,-12.30
2023-02-23T02:54:15.859Z,-12.20
2023-02-23T02:56:45.246Z,-12.20
2023-02-23T02:59:35.871Z,-12.10
2023-02-23T03:02:24.049Z,-12.00
2023-02-23T03:05:10.008Z,-12.00
2023-02-23T03:08:19.051Z,-12.00
2023-02-23T03:11:15.859Z,-12.00
2023-02-23T03:14:19.852Z,-12.20
2023-02-23T03:17:29.306Z,-12.20
2023-02-23T03:20:44.480Z,-12.10
2023-02-23T03:23:43.635Z,-12.20
2023-02-23T03:26:46.211Z,-12.10
2023-02-23T03:29:52.313Z,-12.20
2023-02-23T03:32:57.340Z,-12.20
2023-02-23T03:36:10.772Z,-12.20
2023-02-23T03:39:32.135Z,-12.20
2023-02-23T03:42:19.879Z,-12.40
2023-02-23T03:45:09.619Z,-12.30
2023-02-23T03:47:59.225Z,-12.40
2023-02-23T03:51:04.729Z,-12.30
2023-02-23T03:54:29.199Z,-11.10
2023-02-23T03:57:17.742Z,-12.60
2023-02-23T04:00:10.248Z,-12.60
2023-02-23T04:02:57.658Z,-12.60
2023-02-23T04:05:45.360Z,-12.60
2023-02-23T04:08:35.024Z,-12.60
2023-02-23T04:11:40.118Z,-12.60
2023-02-23T04:14:17.126Z,-12.60
2023-02-23T04:16:45.714Z,-12.50
2023-02-23T04:19:13.417Z,-12.60
2023-02-23T04:21:43.719Z,-12.50
2023-02-23T04:24:11.778Z,-12.70
2023-02-23T04:26:39.428Z,-12.80
2023-02-23T04:29:07.057Z,-12.60
2023-02-23T04:31:34.700Z,-12.60
2023-02-23T04:34:02.331Z,-12.70
2023-02-23T04:36:29.907Z,-12.70
2023-02-23T04:38:57.519Z,-12.80
2023-02-23T04:41:25.103Z,-12.80
2023-02-23T04:43:52.752Z,-12.80
2023-02-23T04:46:23.397Z,-12.80
2023-02-23T04:48:51.171Z,-12.90
2023-02-23T04:51:19.079Z,-12.80
2023-02-23T04:53:49.804Z,-12.50
2023-02-23T04:56:19.663Z,-12.40
2023-02-23T04:58:47.245Z,-12.30
2023-02-23T05:01:14.873Z,-12.10
2023-02-23T05:03:42.563Z,-12.00
2023-02-23T05:06:10.152Z,-11.60
2023-02-23T05:08:40.680Z,-11.50
2023-02-23T05:11:08.885Z,-11.80
2023-02-23T05:13:37.218Z,-12.00
2023-02-23T05:16:05.543Z,-12.20
2023-02-23T05:18:33.185Z,-12.50
2023-02-23T05:21:07.266Z,-12.70
2023-02-23T05:23:39.140Z,-12.50
2023-02-23T05:26:09.766Z,-12.80
2023-02-23T05:28:39.649Z,-12.60
2023-02-23T05:31:07.440Z,-12.50
2023-02-23T05:33:43.024Z,-12.60
2023-02-23T05:36:12.822Z,-12.60
2023-02-23T05:38:41.301Z,-12.60
2023-02-23T05:41:14.605Z,-12.70
2023-02-23T05:43:42.636Z,-11.00
2023-02-23T05:46:12.765Z,-12.60
2023-02-23T05:48:40.883Z,-12.50
2023-02-23T05:51:11.406Z,-12.50
2023-02-23T05:53:39.635Z,-12.40
2023-02-23T05:56:20.595Z,-12.30
2023-02-23T05:58:52.279Z,-12.20
2023-02-23T06:01:20.703Z,-12.20
2023-02-23T06:03:49.540Z,-12.20
2023-02-23T06:06:17.695Z,-12.20
2023-02-23T06:08:45.850Z,-11.90
2023-02-23T06:11:13.461Z,-12.20
2023-02-23T06:13:42.197Z,-12.10
2023-02-23T06:16:10.333Z,-11.90
2023-02-23T06:18:38.076Z,-12.00
2023-02-23T06:21:06.114Z,-11.70
2023-02-23T06:23:33.773Z,-11.70
2023-02-23T06:26:01.343Z,-11.40
2023-02-23T06:28:29.494Z,-11.70
2023-02-23T06:30:57.930Z,-11.70
2023-02-23T06:33:25.979Z,-11.50
2023-02-23T06:35:55.092Z,-11.40
2023-02-23T06:38:23.205Z,-11.30
2023-02-23T06:40:50.936Z,-11.50
2023-02-23T06:43:18.528Z,-11.50
2023-02-23T06:45:47.337Z,-11.10
2023-02-23T06:48:15.026Z,-11.00
2023-02-23T06:50:43.758Z,-11.40
2023-02-23T06:53:11.404Z,-11.40
2023-02-23T06:55:39.003Z,-11.50
2023-02-23T06:58:08.215Z,-11.30
2023-02-23T07:00:35.836Z,-11.20
2023-02-23T07:03:03.382Z,-11.10
2023-02-23T07:05:31.117Z,-11.30
2023-02-23T07:07:58.721Z,-11.20
2023-02-23T07:10:26.316Z,-10.90
2023-02-23T07:12:54.762Z,-11.00
2023-02-23T07:15:22.509Z,-11.10
2023-02-23T07:17:52.969Z,-10.90
2023-02-23T07:20:20.663Z,-10.30
2023-02-23T07:22:48.443Z,-9.40
2023-02-23T07:25:16.061Z,-10.00
2023-02-23T07:27:45.595Z,-10.10
2023-02-23T07:30:14.341Z,-10.20
2023-02-23T07:32:42.392Z,-10.50
2023-02-23T07:35:10.452Z,-10.40
2023-02-23T07:37:37.992Z,-10.40
2023-02-23T07:40:06.365Z,-10.30
2023-02-23T07:42:33.952Z,-10.20
2023-02-23T07:45:01.834Z,-10.20
2023-02-23T07:47:31.459Z,-9.80
2023-02-23T07:50:00.921Z,-10.10
2023-02-23T07:52:29.272Z,-10.10
2023-02-23T07:54:57.964Z,-10.00
2023-02-23T07:57:25.612Z,-10.00
2023-02-23T07:59:53.197Z,-10.20
2023-02-23T08:02:20.764Z,-9.90
2023-02-23T08:04:48.584Z,-10.00
2023-02-23T08:07:16.426Z,-10.10
2023-02-23T08:09:44.136Z,-9.80
2023-02-23T08:12:11.733Z,-9.60
2023-02-23T08:14:39.268Z,-9.60
2023-02-23T08:17:08.679Z,-9.90
2023-02-23T08:19:37.554Z,-9.70
2023-02-23T08:22:06.871Z,-9.70
2023-02-23T08:24:35.421Z,-9.70
2023-02-23T08:27:03.794Z,-9.40
2023-02-23T08:29:31.691Z,-9.30
2023-02-23T08:32:01.761Z,-9.20
2023-02-23T08:34:29.554Z,-9.30
2023-02-23T08:36:57.329Z,-9.20
2023-02-23T08:39:25.254Z,-9.10
2023-02-23T08:41:56.028Z,-8.70
2023-02-23T08:44:23.825Z,-8.60
2023-02-23T08:46:51.899Z,-8.80
2023-02-23T08:49:20.172Z,-8.50
2023-02-23T08:51:47.779Z,-8.40
2023-02-23T08:54:16.492Z,-8.50
2023-02-23T08:56:45.293Z,-8.60
2023-02-23T08:59:16.033Z,-8.40
2023-02-23T09:01:43.861Z,-8.20
2023-02-23T09:04:11.457Z,-8.70
2023-02-23T09:06:39.075Z,-8.30
2023-02-23T09:09:06.805Z,-8.40
2023-02-23T09:11:34.459Z,-8.20
2023-02-23T09:14:02.198Z,-8.10
2023-02-23T09:16:29.959Z,-7.80
2023-02-23T09:18:59.975Z,-7.90
2023-02-23T09:21:30.126Z,-7.60
2023-02-23T09:23:58.853Z,-7.60
2023-02-23T09:26:29.715Z,-7.40
2023-02-23T09:28:59.708Z,-7.60
2023-02-23T09:31:27.839Z,-8.00
2023-02-23T09:33:55.856Z,-7.70
2023-02-23T09:36:25.803Z,-7.40
2023-02-23T09:38:58.313Z,-7.10
2023-02-23T09:41:25.869Z,-7.60
2023-02-23T09:44:15.665Z,-7.60
2023-02-23T09:47:23.222Z,-7.30
2023-02-23T09:49:52.077Z,-7.10
2023-02-23T09:52:24.591Z,-6.90
2023-02-23T09:54:52.332Z,-6.90
2023-02-23T09:57:26.152Z,-6.80
2023-02-23T09:59:53.742Z,-6.70
2023-02-23T10:02:40.128Z,-6.50
2023-02-23T10:05:14.880Z,-6.50
2023-02-23T10:07:55.285Z,-6.90
2023-02-23T10:10:51.613Z,-6.60
2023-02-23T10:13:45.379Z,-6.40
2023-02-23T10:16:26.369Z,-6.00
2023-02-23T10:18:57.012Z,-6.30
2023-02-23T10:21:42.527Z,-6.40
2023-02-23T10:24:25.566Z,-6.00
2023-02-23T10:26:58.481Z,-6.10
2023-02-23T10:29:41.638Z,-5.20
2023-02-23T10:32:46.394Z,-6.20
2023-02-23T10:35:21.379Z,-6.10
2023-02-23T10:37:51.343Z,-6.00
2023-02-23T10:40:23.241Z,-5.00
2023-02-23T10:43:01.109Z,0.70
2023-02-23T10:45:31.044Z,4.90
2023-02-23T10:48:02.810Z,7.00
2023-02-23T10:50:32.197Z,6.30
2023-02-23T10:53:11.570Z,5.10
2023-02-23T10:55:39.812Z,4.70
2023-02-23T10:58:21.302Z,4.60
2023-02-23T11:01:01.289Z,5.30
2023-02-23T11:03:43.200Z,3.30
2023-02-23T11:06:32.672Z,4.10
2023-02-23T11:09:17.267Z,4.30
2023-02-23T11:12:22.246Z,4.50
2023-02-23T11:14:54.713Z,3.60
2023-02-23T11:17:35.284Z,4.30
2023-02-23T11:20:36.401Z,2.50
2023-02-23T11:23:23.777Z,3.80
2023-02-23T11:25:57.125Z,4.70
2023-02-23T11:28:41.936Z,6.80
2023-02-23T11:31:22.844Z,3.20
2023-02-23T11:33:53.725Z,5.30
2023-02-23T11:36:32.995Z,6.30
2023-02-23T11:39:23.705Z,5.40
2023-02-23T11:42:21.269Z,6.00
2023-02-23T11:45:11.330Z,4.40
2023-02-23T11:47:49.345Z,6.50
2023-02-23T11:50:25.074Z,5.00
2023-02-23T11:53:05.063Z,4.30
2023-02-23T11:55:37.038Z,6.60
2023-02-23T11:58:22.957Z,6.60
2023-02-23T12:01:14.775Z,5.70
2023-02-23T12:03:50.243Z,7.10
2023-02-23T12:06:35.866Z,7.40
2023-02-23T12:09:28.394Z,7.70
2023-02-23T12:12:11.415Z,7.10
2023-02-23T12:14:51.547Z,6.40
2023-02-23T12:17:27.605Z,7.40
2023-02-23T12:20:26.297Z,7.30
2023-02-23T12:23:10.503Z,6.90
2023-02-23T12:25:51.090Z,6.50
2023-02-23T12:28:34.617Z,3.90
2023-02-23T12:31:28.749Z,6.90
2023-02-23T12:34:02.811Z,5.30
2023-02-23T12:36:44.591Z,7.00
2023-02-23T12:39:36.395Z,7.30
2023-02-23T12:42:33.529Z,6.10
2023-02-23T12:45:06.768Z,5.80
2023-02-23T12:47:56.827Z,6.00
2023-02-23T12:50:34.039Z,5.50
2023-02-23T12:53:17.900Z,7.40
2023-02-23T12:56:04.612Z,4.90
2023-02-23T12:58:50.375Z,6.50
2023-02-23T13:01:41.784Z,7.40
2023-02-23T13:04:34.452Z,6.80
2023-02-23T13:07:17.055Z,5.80
2023-02-23T13:10:13.040Z,4.60
2023-02-23T13:12:55.420Z,3.40
2023-02-23T13:15:53.860Z,-2.10
2023-02-23T13:18:43.975Z,-3.30
2023-02-23T13:21:23.581Z,-3.20
2023-02-23T13:24:12.073Z,-3.50
2023-02-23T13:27:07.452Z,-3.30
2023-02-23T13:29:37.672Z,-3.50
2023-02-23T13:32:11.600Z,-3.70
2023-02-23T13:34:55.863Z,-3.70
2023-02-23T13:37:29.080Z,-3.60
2023-02-23T13:40:15.270Z,-0.80
2023-02-23T13:43:18.090Z,1.10
2023-02-23T13:46:05.780Z,0.50
2023-02-23T13:48:56.706Z,0.30
2023-02-23T13:51:49.195Z,1.30
2023-02-23T13:54:18.667Z,2.90
2023-02-23T13:56:56.418Z,1.30
2023-02-23T13:59:29.740Z,0.80
2023-02-23T14:02:00.070Z,1.50
2023-02-23T14:04:35.727Z,0.30
2023-02-23T14:07:27.715Z,-0.40
2023-02-23T14:10:05.426Z,-1.80
2023-02-23T14:13:05.416Z,-3.10
2023-02-23T14:15:35.840Z,-4.00
2023-02-23T14:18:26.636Z,-3.70
2023-02-23T14:20:57.412Z,-3.60
2023-02-23T14:23:25.238Z,-3.90
2023-02-23T14:26:16.744Z,-3.90
2023-02-23T14:28:52.072Z,-4.00
2023-02-23T14:31:23.808Z,-3.80
2023-02-23T14:33:59.659Z,-4.00
2023-02-23T14:36:29.658Z,-3.70
2023-02-23T14:38:57.207Z,-3.60
2023-02-23T14:41:26.024Z,-3.60
2023-02-23T14:44:04.151Z,-3.90
2023-02-23T14:46:35.341Z,-4.30
2023-02-23T14:49:17.049Z,-4.60
2023-02-23T14:51:52.035Z,-4.70
2023-02-23T14:54:33.060Z,-4.30
2023-02-23T14:57:06.511Z,-4.40
2023-02-23T14:59:42.452Z,-5.00
2023-02-23T15:02:22.435Z,-4.60
2023-02-23T15:04:50.078Z,-4.90
2023-02-23T15:07:42.585Z,-4.60
2023-02-23T15:10:24.840Z,-4.80
2023-02-23T15:12:55.148Z,-4.80
2023-02-23T15:15:26.796Z,-4.90
2023-02-23T15:17:59.495Z,-5.10
2023-02-23T15:20:32.856Z,-5.20
2023-02-23T15:23:06.150Z,-4.70
2023-02-23T15:25:39.840Z,-6.00
2023-02-23T15:28:23.934Z,-5.50
2023-02-23T15:30:57.284Z,-5.30
2023-02-23T15:33:28.961Z,-5.10
2023-02-23T15:36:23.919Z,-5.40
2023-02-23T15:38:55.560Z,-5.50
2023-02-23T15:41:30.612Z,-5.50
2023-02-23T15:44:12.778Z,-5.40
2023-02-23T15:46:42.086Z,-5.90
2023-02-23T15:49:19.750Z,-5.90
2023-02-23T15:51:52.815Z,-5.90
2023-02-23T15:54:32.669Z,-5.90
2023-02-23T15:57:07.730Z,-5.70
2023-02-23T15:59:38.360Z,-5.60
2023-02-23T16:02:19.636Z,-5.60
2023-02-23T16:04:53.048Z,-5.80
2023-02-23T16:07:36.491Z,-5.50
2023-02-23T16:10:19.202Z,-5.80
2023-02-23T16:12:51.445Z,-5.80
2023-02-23T16:15:26.385Z,-6.00
2023-02-23T16:18:20.409Z,-5.80
2023-02-23T16:20:56.306Z,-5.70
2023-02-23T16:23:52.797Z,-5.70
2023-02-23T16:26:24.435Z,-5.60
2023-02-23T16:28:59.880Z,-5.60
2023-02-23T16:31:55.641Z,-6.00
2023-02-23T16:34:27.524Z,-5.80
2023-02-23T16:37:00.387Z,-5.70
2023-02-23T16:39:30.228Z,-5.50
2023-02-23T16:41:59.662Z,-5.70
2023-02-23T16:44:41.499Z,-5.70
2023-02-23T16:47:26.673Z,-5.60
2023-02-23T16:49:54.401Z,-5.50
2023-02-23T16:52:24.625Z,-5.80
2023-02-23T16:54:55.663Z,-5.40
2023-02-23T16:57:31.027Z,-5.70
2023-02-23T16:59:59.019Z,-5.70
2023-02-23T17:02:26.807Z,-5.70
2023-02-23T17:04:59.262Z,-5.70
2023-02-23T17:07:27.128Z,-5.70
2023-02-23T17:09:54.999Z,-5.70
2023-02-23T17:12:22.851Z,-5.80
2023-02-23T17:14:50.570Z,-5.70
2023-02-23T17:17:19.798Z,-6.00
2023-02-23T17:19:47.464Z,-5.70
2023-02-23T17:22:15.186Z,-5.90
2023-02-23T17:24:43.714Z,-5.70
2023-02-23T17:27:11.969Z,-5.50
2023-02-23T17:29:39.605Z,-5.60
2023-02-23T17:32:07.426Z,-5.80
2023-02-23T17:34:36.086Z,-6.00
2023-02-23T17:37:05.351Z,-6.10
2023-02-23T17:39:34.528Z,-5.90
2023-02-23T17:42:02.138Z,-5.70
2023-02-23T17:44:31.357Z,-5.80
2023-02-23T17:46:59.184Z,-5.90
2023-02-23T17:49:26.761Z,-6.00
2023-02-23T17:51:54.343Z,-6.30
2023-02-23T17:54:22.033Z,-6.30
2023-02-23T17:56:50.712Z,-6.20
2023-02-23T17:59:18.344Z,-6.20
2023-02-23T18:01:47.473Z,-6.10
2023-02-23T18:04:16.482Z,-6.10
2023-02-23T18:06:47.473Z,-6.00
2023-02-23T18:09:15.073Z,-6.10
2023-02-23T18:11:42.674Z,-6.50
2023-02-23T18:14:14.199Z,-6.20
2023-02-23T18:16:41.814Z,-5.90
2023-02-23T18:19:09.591Z,-6.20
2023-02-23T18:21:41.035Z,-6.00
2023-02-23T18:24:08.745Z,-6.20
2023-02-23T18:26:36.347Z,-6.00
2023-02-23T18:29:05.193Z,-5.80
2023-02-23T18:31:34.055Z,-5.90
2023-02-23T18:34:02.268Z,-6.30
2023-02-23T18:36:32.208Z,-6.00
2023-02-23T18:39:01.421Z,-6.10
2023-02-23T18:41:31.123Z,-5.80
2023-02-23T18:43:59.927Z,-5.90
2023-02-23T18:46:28.414Z,-6.30
2023-02-23T18:48:56.047Z,-6.10
2023-02-23T18:51:24.272Z,-6.30
2023-02-23T18:53:52.978Z,-6.10
2023-02-23T18:56:25.370Z,-6.20
2023-02-23T18:58:59.063Z,-6.10
2023-02-23T19:01:29.667Z,-5.80
2023-02-23T19:03:59.765Z,-5.90
2023-02-23T19:06:28.194Z,-6.10
2023-02-23T19:08:59.596Z,-6.20
2023-02-23T19:11:30.465Z,-6.10
2023-02-23T19:14:04.011Z,-6.00
2023-02-23T19:16:33.390Z,-6.20
2023-02-23T19:19:02.398Z,-6.00
2023-02-23T19:21:30.210Z,-6.10
2023-02-23T19:23:58.675Z,-6.00
2023-02-23T19:26:27.351Z,-6.10
2023-02-23T19:28:55.372Z,-6.40
2023-02-23T19:31:26.389Z,-6.10
2023-02-23T19:33:57.004Z,-6.20
2023-02-23T19:36:30.025Z,-5.80
2023-02-23T19:39:06.369Z,-6.10
2023-02-23T19:41:34.936Z,-6.30
2023-02-23T19:44:02.904Z,-6.30
2023-02-23T19:46:30.420Z,-6.40
2023-02-23T19:48:58.154Z,-6.10
2023-02-23T19:51:25.627Z,-6.20
2023-02-23T19:53:54.811Z,-5.90
2023-02-23T19:56:27.358Z,-6.00
2023-02-23T19:59:00.358Z,-6.30
2023-02-23T20:01:28.796Z,-6.00
2023-02-23T20:04:01.915Z,-6.10
2023-02-23T20:06:34.655Z,-6.10
2023-02-23T20:09:05.074Z,-6.00
2023-02-23T20:11:33.062Z,-6.20
2023-02-23T20:14:00.810Z,-6.20
2023-02-23T20:16:29.786Z,-6.00
2023-02-23T20:18:58.431Z,-6.00
2023-02-23T20:21:26.981Z,-5.90
2023-02-23T20:23:56.046Z,-6.20
2023-02-23T20:26:29.519Z,-6.20
2023-02-23T20:28:58.175Z,-6.10
2023-02-23T20:31:31.828Z,-6.20
2023-02-23T20:34:01.623Z,-6.10
2023-02-23T20:36:29.351Z,-6.00
2023-02-23T20:38:57.186Z,-6.10
2023-02-23T20:41:28.225Z,-6.20
2023-02-23T20:43:56.700Z,-6.20
2023-02-23T20:46:24.776Z,-6.10
2023-02-23T20:48:52.609Z,-6.10
2023-02-23T20:51:21.390Z,-6.30
2023-02-23T20:53:49.522Z,-6.10
2023-02-23T20:56:19.073Z,-5.80
2023-02-23T20:58:47.009Z,-6.20
2023-02-23T21:01:18.291Z,-6.40
2023-02-23T21:03:46.479Z,-6.10
2023-02-23T21:06:13.904Z,-6.10
2023-02-23T21:08:42.762Z,-6.30
2023-02-23T21:11:12.163Z,-6.20
2023-02-23T21:13:39.710Z,-6.20
2023-02-23T21:16:07.693Z,-6.20
2023-02-23T21:18:35.362Z,-6.00
2023-02-23T21:21:06.819Z,-6.30
2023-02-23T21:23:34.332Z,-6.00
2023-02-23T21:26:09.982Z,-5.90
2023-02-23T21:28:39.549Z,-6.00
2023-02-23T21:31:10.986Z,-6.20
2023-02-23T21:33:40.476Z,-6.30
2023-02-23T21:36:12.798Z,-6.10
2023-02-23T21:38:42.536Z,-5.70
2023-02-23T21:41:12.605Z,-6.20
2023-02-23T21:43:43.019Z,-6.30
2023-02-23T21:46:16.577Z,-5.90
2023-02-23T21:48:47.954Z,-6.20
2023-02-23T21:51:17.179Z,-6.20
2023-02-23T21:53:45.936Z,-6.30
2023-02-23T21:56:20.545Z,-6.60
2023-02-23T21:58:53.526Z,-6.50
2023-02-23T22:01:26.897Z,-6.50
2023-02-23T22:03:55.521Z,-6.50
2023-02-23T22:06:29.995Z,-6.30
2023-02-23T22:08:58.278Z,-6.40
2023-02-23T22:11:27.927Z,-6.60
2023-02-23T22:14:00.013Z,-6.70
2023-02-23T22:16:31.078Z,-6.60
2023-02-23T22:19:03.833Z,-6.60
2023-02-23T22:21:40.235Z,-6.50
2023-02-23T22:24:08.890Z,-6.50
2023-02-23T22:26:38.658Z,-6.60
2023-02-23T22:29:08.866Z,-6.70
2023-02-23T22:31:39.842Z,-6.50
2023-02-23T22:34:08.634Z,-6.70
2023-02-23T22:36:36.286Z,-6.60
2023-02-23T22:39:10.025Z,-6.70
2023-02-23T22:41:42.562Z,-6.70
2023-02-23T22:44:12.561Z,-6.60
2023-02-23T22:46:41.782Z,-6.60
2023-02-23T22:49:12.002Z,-6.50
2023-02-23T22:51:39.733Z,-6.70
2023-02-23T22:54:07.984Z,-6.70
2023-02-23T22:56:36.764Z,-6.40
2023-02-23T22:59:11.124Z,-6.50
2023-02-23T23:01:39.613Z,-6.60
2023-02-23T23:04:10.701Z,-6.40
2023-02-23T23:06:40.633Z,-6.50
2023-02-23T23:09:13.980Z,-6.60
2023-02-23T23:11:45.151Z,-6.30
2023-02-23T23:14:14.883Z,-6.60
2023-02-23T23:16:53.412Z,-6.70
2023-02-23T23:19:25.908Z,-6.40
2023-02-23T23:22:00.708Z,-6.50
2023-02-23T23:24:28.339Z,-6.40
2023-02-23T23:26:56.221Z,-6.40
2023-02-23T23:29:29.867Z,-6.50
2023-02-23T23:31:57.699Z,-6.50
2023-02-23T23:34:25.635Z,-6.60
2023-02-23T23:36:53.571Z,-6.70
2023-02-23T23:39:23.161Z,-6.70
2023-02-23T23:41:51.072Z,-6.70
2023-02-23T23:44:21.510Z,-6.70
2023-02-23T23:46:53.230Z,-6.80
2023-02-23T23:49:25.798Z,-6.60
2023-02-23T23:51:56.760Z,-6.80
2023-02-23T23:54:31.076Z,-6.80
2023-02-23T23:57:01.699Z,-6.70
2023-02-23T23:59:29.351Z,-6.70
